sensor_id;sensor_type;location;lat;lon;timestamp;pressure;altitude;pressure_sealevel;temperature;humidity
51452;BME280;37521;52.020;-1.740;2023-03-21T00:01:39;99426.47;;;6.59;100.00
51452;BME280;37521;52.020;-1.740;2023-03-21T00:04:08;99420.38;;;6.58;100.00
51452;BME280;37521;52.020;-1.740;2023-03-21T00:06:37;99421.28;;;6.57;100.00
51452;BME280;37521;52.020;-1.740;2023-03-21T00:09:06;99408.25;;;6.55;100.00
51452;BME280;37521;52.020;-1.740;2023-03-21T00:11:34;99399.50;;;6.55;100.00
51452;BME280;37521;52.020;-1.740;2023-03-21T00:14:02;99392.63;;;6.52;100.00
51452;BME280;37521;52.020;-1.740;2023-03-21T00:16:34;99393.53;;;6.51;100.00
51452;BME280;37521;52.020;-1.740;2023-03-21T00:19:06;99390.78;;;6.54;100.00
51452;BME280;37521;52.020;-1.740;2023-03-21T00:21:36;99389.88;;;6.55;100.00
51452;BME280;37521;52.020;-1.740;2023-03-21T00:24:28;99389.88;;;6.55;100.00
51452;BME280;37521;52.020;-1.740;2023-03-21T00:26:57;99388.28;;;6.51;100.00
51452;BME280;37521;52.020;-1.740;2023-03-21T00:29:47;99379.66;;;6.49;100.00
51452;BME280;37521;52.020;-1.740;2023-03-21T00:32:17;99371.03;;;6.46;100.00
51452;BME280;37521;52.020;-1.740;2023-03-21T00:34:47;99366.81;;;6.42;100.00
51452;BME280;37521;52.020;-1.740;2023-03-21T00:37:36;99362.56;;;6.39;100.00
51452;BME280;37521;52.020;-1.740;2023-03-21T00:40:06;99352.97;;;6.38;100.00
51452;BME280;37521;52.020;-1.740;2023-03-21T00:42:45;99338.16;;;6.37;100.00
51452;BME280;37521;52.020;-1.740;2023-03-21T00:45:13;99338.16;;;6.37;100.00
51452;BME280;37521;52.020;-1.740;2023-03-21T00:47:42;99329.47;;;6.35;100.00
51452;BME280;37521;52.020;-1.740;2023-03-21T00:50:11;99333.16;;;6.31;100.00
51452;BME280;37521;52.020;-1.740;2023-03-21T00:52:40;99334.00;;;6.32;100.00
51452;BME280;37521;52.020;-1.740;2023-03-21T00:55:11;99333.16;;;6.31;100.00
51452;BME280;37521;52.020;-1.740;2023-03-21T00:57:40;99329.63;;;6.32;100.00
51452;BME280;37521;52.020;-1.740;2023-03-21T01:00:18;99320.84;;;6.33;100.00
51452;BME280;37521;52.020;-1.740;2023-03-21T01:02:47;99320.84;;;6.33;100.00
51452;BME280;37521;52.020;-1.740;2023-03-21T01:05:32;99329.63;;;6.32;100.00
51452;BME280;37521;52.020;-1.740;2023-03-21T01:08:20;99321.69;;;6.34;100.00
51452;BME280;37521;52.020;-1.740;2023-03-21T01:11:00;99319.00;;;6.35;100.00
51452;BME280;37521;52.020;-1.740;2023-03-21T01:13:29;99319.88;;;6.36;100.00
51452;BME280;37521;52.020;-1.740;2023-03-21T01:16:03;99312.88;;;6.36;100.00
51452;BME280;37521;52.020;-1.740;2023-03-21T01:18:33;99301.56;;;6.34;100.00
51452;BME280;37521;52.020;-1.740;2023-03-21T01:21:06;99297.16;;;6.35;100.00
51452;BME280;37521;52.020;-1.740;2023-03-21T01:23:37;99290.31;;;6.32;100.00
51452;BME280;37521;52.020;-1.740;2023-03-21T01:26:07;99291.16;;;6.33;100.00
51452;BME280;37521;52.020;-1.740;2023-03-21T01:28:37;99296.38;;;6.33;100.00
51452;BME280;37521;52.020;-1.740;2023-03-21T01:31:05;99313.03;;;6.32;100.00
51452;BME280;37521;52.020;-1.740;2023-03-21T01:33:34;99306.94;;;6.31;100.00
51452;BME280;37521;52.020;-1.740;2023-03-21T01:36:03;99285.91;;;6.33;100.00
51452;BME280;37521;52.020;-1.740;2023-03-21T01:38:41;99294.75;;;6.30;100.00
51452;BME280;37521;52.020;-1.740;2023-03-21T01:41:19;99282.50;;;6.31;100.00
51452;BME280;37521;52.020;-1.740;2023-03-21T01:43:54;99277.31;;;6.29;100.00
51452;BME280;37521;52.020;-1.740;2023-03-21T01:46:35;99277.31;;;6.29;100.00
51452;BME280;37521;52.020;-1.740;2023-03-21T01:49:42;99267.72;;;6.28;100.00
51452;BME280;37521;52.020;-1.740;2023-03-21T01:52:20;99276.41;;;6.30;100.00
51452;BME280;37521;52.020;-1.740;2023-03-21T01:55:09;99268.53;;;6.30;100.00
51452;BME280;37521;52.020;-1.740;2023-03-21T01:57:50;99277.31;;;6.29;100.00
51452;BME280;37521;52.020;-1.740;2023-03-21T02:00:54;99265.09;;;6.28;100.00
51452;BME280;37521;52.020;-1.740;2023-03-21T02:03:33;99260.84;;;6.25;100.00
51452;BME280;37521;52.020;-1.740;2023-03-21T02:06:29;99264.41;;;6.24;100.00
51452;BME280;37521;52.020;-1.740;2023-03-21T02:09:12;99269.63;;;6.24;100.00
51452;BME280;37521;52.020;-1.740;2023-03-21T02:11:42;99253.06;;;6.24;100.00
51452;BME280;37521;52.020;-1.740;2023-03-21T02:14:15;99259.16;;;6.24;100.00
51452;BME280;37521;52.020;-1.740;2023-03-21T02:17:08;99248.78;;;6.21;100.00
51452;BME280;37521;52.020;-1.740;2023-03-21T02:20:05;99254.91;;;6.22;100.00
51452;BME280;37521;52.020;-1.740;2023-03-21T02:23:01;99255.00;;;6.19;100.00
51452;BME280;37521;52.020;-1.740;2023-03-21T02:25:53;99244.53;;;6.19;100.00
51452;BME280;37521;52.020;-1.740;2023-03-21T02:28:28;99239.28;;;6.19;100.00
51452;BME280;37521;52.020;-1.740;2023-03-21T02:31:10;99227.09;;;6.18;100.00
51452;BME280;37521;52.020;-1.740;2023-03-21T02:34:09;99226.31;;;6.16;100.00
51452;BME280;37521;52.020;-1.740;2023-03-21T02:36:54;99225.50;;;6.14;100.00
51452;BME280;37521;52.020;-1.740;2023-03-21T02:39:27;99213.31;;;6.13;100.00
51452;BME280;37521;52.020;-1.740;2023-03-21T02:42:03;99224.66;;;6.13;100.00
51452;BME280;37521;52.020;-1.740;2023-03-21T02:44:40;99196.66;;;6.14;100.00
51452;BME280;37521;52.020;-1.740;2023-03-21T02:47:13;99201.91;;;6.14;100.00
51452;BME280;37521;52.020;-1.740;2023-03-21T02:49:48;99194.19;;;6.11;100.00
51452;BME280;37521;52.020;-1.740;2023-03-21T02:52:23;99195.88;;;6.12;100.00
51452;BME280;37521;52.020;-1.740;2023-03-21T02:55:10;99194.00;;;6.15;100.00
51452;BME280;37521;52.020;-1.740;2023-03-21T02:57:50;99190.50;;;6.15;100.00
51452;BME280;37521;52.020;-1.740;2023-03-21T03:00:21;99192.34;;;6.13;100.00
51452;BME280;37521;52.020;-1.740;2023-03-21T03:02:50;99192.25;;;6.16;100.00
51452;BME280;37521;52.020;-1.740;2023-03-21T03:05:36;99194.88;;;6.16;100.00
51452;BME280;37521;52.020;-1.740;2023-03-21T03:08:17;99200.88;;;6.18;100.00
51452;BME280;37521;52.020;-1.740;2023-03-21T03:11:08;99205.19;;;6.19;100.00
51452;BME280;37521;52.020;-1.740;2023-03-21T03:13:50;99206.06;;;6.19;100.00
51452;BME280;37521;52.020;-1.740;2023-03-21T03:16:26;99213.91;;;6.19;100.00
51452;BME280;37521;52.020;-1.740;2023-03-21T03:18:59;99211.38;;;6.18;100.00
51452;BME280;37521;52.020;-1.740;2023-03-21T03:21:34;99204.34;;;6.18;100.00
51452;BME280;37521;52.020;-1.740;2023-03-21T03:24:09;99196.56;;;6.17;100.00
51452;BME280;37521;52.020;-1.740;2023-03-21T03:26:40;99192.25;;;6.16;100.00
51452;BME280;37521;52.020;-1.740;2023-03-21T03:29:13;99190.50;;;6.15;100.00
51452;BME280;37521;52.020;-1.740;2023-03-21T03:31:46;99190.50;;;6.15;100.00
51452;BME280;37521;52.020;-1.740;2023-03-21T03:34:18;99188.88;;;6.12;100.00
51452;BME280;37521;52.020;-1.740;2023-03-21T03:36:51;99183.63;;;6.12;100.00
51452;BME280;37521;52.020;-1.740;2023-03-21T03:39:33;99172.31;;;6.12;100.00
51452;BME280;37521;52.020;-1.740;2023-03-21T03:42:05;99156.66;;;6.10;100.00
51452;BME280;37521;52.020;-1.740;2023-03-21T03:45:00;99155.81;;;6.10;100.00
51452;BME280;37521;52.020;-1.740;2023-03-21T03:47:33;99147.00;;;6.11;100.00
51452;BME280;37521;52.020;-1.740;2023-03-21T03:50:25;99150.56;;;6.10;100.00
51452;BME280;37521;52.020;-1.740;2023-03-21T03:52:59;99153.97;;;6.12;100.00
51452;BME280;37521;52.020;-1.740;2023-03-21T03:55:44;99152.97;;;6.14;100.00
51452;BME280;37521;52.020;-1.740;2023-03-21T03:58:16;99148.56;;;6.15;100.00
51452;BME280;37521;52.020;-1.740;2023-03-21T04:00:53;99153.81;;;6.15;100.00
51452;BME280;37521;52.020;-1.740;2023-03-21T04:03:22;99150.31;;;6.16;100.00
51452;BME280;37521;52.020;-1.740;2023-03-21T04:05:51;99145.00;;;6.17;100.00
51452;BME280;37521;52.020;-1.740;2023-03-21T04:08:20;99144.13;;;6.17;100.00
51452;BME280;37521;52.020;-1.740;2023-03-21T04:10:53;99139.81;;;6.16;100.00
51452;BME280;37521;52.020;-1.740;2023-03-21T04:13:22;99140.66;;;6.16;100.00
51452;BME280;37521;52.020;-1.740;2023-03-21T04:16:10;99129.34;;;6.16;100.00
51452;BME280;37521;52.020;-1.740;2023-03-21T04:18:41;99132.91;;;6.13;100.00
51452;BME280;37521;52.020;-1.740;2023-03-21T04:21:11;99131.97;;;6.16;100.00
51452;BME280;37521;52.020;-1.740;2023-03-21T04:23:40;99131.09;;;6.15;100.00
51452;BME280;37521;52.020;-1.740;2023-03-21T04:26:10;99121.47;;;6.16;100.00
51452;BME280;37521;52.020;-1.740;2023-03-21T04:28:44;99116.16;;;6.17;100.00
51452;BME280;37521;52.020;-1.740;2023-03-21T04:31:28;99128.34;;;6.18;100.00
51452;BME280;37521;52.020;-1.740;2023-03-21T04:34:04;99120.56;;;6.17;100.00
51452;BME280;37521;52.020;-1.740;2023-03-21T04:36:37;99129.25;;;6.17;100.00
51452;BME280;37521;52.020;-1.740;2023-03-21T04:39:09;99115.25;;;6.18;100.00
51452;BME280;37521;52.020;-1.740;2023-03-21T04:41:43;99105.59;;;6.19;100.00
51452;BME280;37521;52.020;-1.740;2023-03-21T04:44:12;99106.53;;;6.18;100.00
51452;BME280;37521;52.020;-1.740;2023-03-21T04:46:41;99099.59;;;6.17;100.00
51452;BME280;37521;52.020;-1.740;2023-03-21T04:49:10;99101.28;;;6.18;100.00
51452;BME280;37521;52.020;-1.740;2023-03-21T04:51:41;99097.75;;;6.19;100.00
51452;BME280;37521;52.020;-1.740;2023-03-21T04:54:12;99096.81;;;6.20;100.00
51452;BME280;37521;52.020;-1.740;2023-03-21T04:56:41;99088.94;;;6.20;100.00
51452;BME280;37521;52.020;-1.740;2023-03-21T04:59:13;99084.56;;;6.20;100.00
51452;BME280;37521;52.020;-1.740;2023-03-21T05:01:42;99083.59;;;6.23;100.00
51452;BME280;37521;52.020;-1.740;2023-03-21T05:04:12;99082.75;;;6.22;100.00
51452;BME280;37521;52.020;-1.740;2023-03-21T05:06:41;99088.84;;;6.23;100.00
51452;BME280;37521;52.020;-1.740;2023-03-21T05:09:10;99079.19;;;6.23;100.00
51452;BME280;37521;52.020;-1.740;2023-03-21T05:11:39;99068.72;;;6.23;100.00
51452;BME280;37521;52.020;-1.740;2023-03-21T05:14:14;99063.47;;;6.23;100.00
51452;BME280;37521;52.020;-1.740;2023-03-21T05:16:44;99063.47;;;6.23;100.00
51452;BME280;37521;52.020;-1.740;2023-03-21T05:19:23;99067.72;;;6.26;100.00
51452;BME280;37521;52.020;-1.740;2023-03-21T05:21:52;99076.50;;;6.25;100.00
51452;BME280;37521;52.020;-1.740;2023-03-21T05:24:25;99069.41;;;6.27;100.00
51452;BME280;37521;52.020;-1.740;2023-03-21T05:26:53;99068.50;;;6.28;100.00
51452;BME280;37521;52.020;-1.740;2023-03-21T05:29:28;99052.75;;;6.28;100.00
51452;BME280;37521;52.020;-1.740;2023-03-21T05:32:00;99046.63;;;6.29;100.00
51452;BME280;37521;52.020;-1.740;2023-03-21T05:34:29;99048.38;;;6.28;100.00
51452;BME280;37521;52.020;-1.740;2023-03-21T05:36:58;99046.63;;;6.29;100.00
51452;BME280;37521;52.020;-1.740;2023-03-21T05:39:39;99046.47;;;6.32;100.00
51452;BME280;37521;52.020;-1.740;2023-03-21T05:42:13;99055.13;;;6.34;100.00
51452;BME280;37521;52.020;-1.740;2023-03-21T05:44:43;99051.56;;;6.35;100.00
51452;BME280;37521;52.020;-1.740;2023-03-21T05:47:13;99057.63;;;6.37;100.00
51452;BME280;37521;52.020;-1.740;2023-03-21T05:49:44;99055.84;;;6.38;100.00
51452;BME280;37521;52.020;-1.740;2023-03-21T05:52:14;99054.00;;;6.40;100.00
51452;BME280;37521;52.020;-1.740;2023-03-21T05:54:44;99044.38;;;6.40;100.00
51452;BME280;37521;52.020;-1.740;2023-03-21T05:57:13;99042.53;;;6.42;100.00
51452;BME280;37521;52.020;-1.740;2023-03-21T05:59:55;99019.78;;;6.43;100.00
51452;BME280;37521;52.020;-1.740;2023-03-21T06:02:24;99038.16;;;6.43;100.00
51452;BME280;37521;52.020;-1.740;2023-03-21T06:04:54;99040.91;;;6.40;100.00
51452;BME280;37521;52.020;-1.740;2023-03-21T06:07:22;99027.84;;;6.38;100.00
51452;BME280;37521;52.020;-1.740;2023-03-21T06:09:50;99028.78;;;6.37;100.00
51452;BME280;37521;52.020;-1.740;2023-03-21T06:12:18;99021.97;;;6.33;100.00
51452;BME280;37521;52.020;-1.740;2023-03-21T06:15:02;99030.75;;;6.32;100.00
51452;BME280;37521;52.020;-1.740;2023-03-21T06:17:37;99023.81;;;6.31;100.00
51452;BME280;37521;52.020;-1.740;2023-03-21T06:20:10;99026.50;;;6.30;100.00
51452;BME280;37521;52.020;-1.740;2023-03-21T06:22:44;99023.16;;;6.26;100.00
51452;BME280;37521;52.020;-1.740;2023-03-21T06:25:12;99031.75;;;6.30;100.00
51452;BME280;37521;52.020;-1.740;2023-03-21T06:27:40;99038.63;;;6.32;100.00
51452;BME280;37521;52.020;-1.740;2023-03-21T06:30:11;99039.38;;;6.34;100.00
51452;BME280;37521;52.020;-1.740;2023-03-21T06:32:51;99040.97;;;6.38;100.00
51452;BME280;37521;52.020;-1.740;2023-03-21T06:35:20;99045.94;;;6.44;100.00
51452;BME280;37521;52.020;-1.740;2023-03-21T06:37:49;99046.63;;;6.48;100.00
51452;BME280;37521;52.020;-1.740;2023-03-21T06:40:18;99030.72;;;6.52;100.00
51452;BME280;37521;52.020;-1.740;2023-03-21T06:42:47;99031.47;;;6.54;100.00
51452;BME280;37521;52.020;-1.740;2023-03-21T06:45:17;99032.31;;;6.55;100.00
51452;BME280;37521;52.020;-1.740;2023-03-21T06:47:45;99033.22;;;6.55;100.00
51452;BME280;37521;52.020;-1.740;2023-03-21T06:50:25;99040.16;;;6.57;100.00
51452;BME280;37521;52.020;-1.740;2023-03-21T06:52:54;99038.28;;;6.59;100.00
51452;BME280;37521;52.020;-1.740;2023-03-21T06:55:23;99032.03;;;6.61;100.00
51452;BME280;37521;52.020;-1.740;2023-03-21T06:57:54;99039.88;;;6.63;100.00
51452;BME280;37521;52.020;-1.740;2023-03-21T07:00:27;99029.38;;;6.63;100.00
51452;BME280;37521;52.020;-1.740;2023-03-21T07:02:55;99027.53;;;6.65;100.00
51452;BME280;37521;52.020;-1.740;2023-03-21T07:05:24;99030.91;;;6.67;100.00
51452;BME280;37521;52.020;-1.740;2023-03-21T07:07:53;99023.06;;;6.67;100.00
51452;BME280;37521;52.020;-1.740;2023-03-21T07:10:22;99029.09;;;6.69;100.00
51452;BME280;37521;52.020;-1.740;2023-03-21T07:12:58;99017.59;;;6.71;100.00
51452;BME280;37521;52.020;-1.740;2023-03-21T07:15:46;99025.28;;;6.76;100.00
51452;BME280;37521;52.020;-1.740;2023-03-21T07:18:14;99023.41;;;6.78;100.00
51452;BME280;37521;52.020;-1.740;2023-03-21T07:20:45;99008.44;;;6.80;100.00
51452;BME280;37521;52.020;-1.740;2023-03-21T07:23:16;99019.59;;;6.85;100.00
51452;BME280;37521;52.020;-1.740;2023-03-21T07:25:46;99026.16;;;6.94;100.00
51452;BME280;37521;52.020;-1.740;2023-03-21T07:28:16;99019.66;;;7.02;100.00
51452;BME280;37521;52.020;-1.740;2023-03-21T07:30:51;99019.97;;;7.14;100.00
51452;BME280;37521;52.020;-1.740;2023-03-21T07:33:20;99015.97;;;7.24;100.00
51452;BME280;37521;52.020;-1.740;2023-03-21T07:35:49;99017.47;;;7.29;100.00
51452;BME280;37521;52.020;-1.740;2023-03-21T07:38:18;99023.41;;;7.33;100.00
51452;BME280;37521;52.020;-1.740;2023-03-21T07:40:47;99020.66;;;7.36;100.00
51452;BME280;37521;52.020;-1.740;2023-03-21T07:43:17;99020.47;;;7.39;100.00
51452;BME280;37521;52.020;-1.740;2023-03-21T07:45:47;99025.91;;;7.36;100.00
51452;BME280;37521;52.020;-1.740;2023-03-21T07:48:15;99020.69;;;7.34;100.00
51452;BME280;37521;52.020;-1.740;2023-03-21T07:50:44;99015.53;;;7.33;100.00
51452;BME280;37521;52.020;-1.740;2023-03-21T07:53:13;99014.75;;;7.31;100.00
51452;BME280;37521;52.020;-1.740;2023-03-21T07:55:41;99011.28;;;7.30;100.00
51452;BME280;37521;52.020;-1.740;2023-03-21T07:58:09;99020.16;;;7.28;100.00
51452;BME280;37521;52.020;-1.740;2023-03-21T08:00:37;99017.59;;;7.26;100.00
51452;BME280;37521;52.020;-1.740;2023-03-21T08:03:06;99011.41;;;7.27;100.00
51452;BME280;37521;52.020;-1.740;2023-03-21T08:05:36;99008.56;;;7.32;100.00
51452;BME280;37521;52.020;-1.740;2023-03-21T08:08:06;99003.16;;;7.35;100.00
51452;BME280;37521;52.020;-1.740;2023-03-21T08:10:34;99010.13;;;7.36;100.00
51452;BME280;37521;52.020;-1.740;2023-03-21T08:13:03;99008.13;;;7.41;100.00
51452;BME280;37521;52.020;-1.740;2023-03-21T08:15:31;99007.19;;;7.42;100.00
51452;BME280;37521;52.020;-1.740;2023-03-21T08:17:59;99002.09;;;7.39;100.00
51452;BME280;37521;52.020;-1.740;2023-03-21T08:20:29;99001.09;;;7.42;100.00
51452;BME280;37521;52.020;-1.740;2023-03-21T08:22:57;99011.53;;;7.43;100.00
51452;BME280;37521;52.020;-1.740;2023-03-21T08:25:26;99012.22;;;7.47;100.00
51452;BME280;37521;52.020;-1.740;2023-03-21T08:27:54;99003.41;;;7.48;100.00
51452;BME280;37521;52.020;-1.740;2023-03-21T08:30:23;99012.75;;;7.53;100.00
51452;BME280;37521;52.020;-1.740;2023-03-21T08:32:55;99002.13;;;7.56;100.00
51452;BME280;37521;52.020;-1.740;2023-03-21T08:35:29;99000.63;;;7.68;100.00
51452;BME280;37521;52.020;-1.740;2023-03-21T08:37:57;99009.84;;;7.77;100.00
51452;BME280;37521;52.020;-1.740;2023-03-21T08:40:26;99008.06;;;7.77;100.00
51452;BME280;37521;52.020;-1.740;2023-03-21T08:42:55;99002.19;;;7.72;100.00
51452;BME280;37521;52.020;-1.740;2023-03-21T08:45:24;99011.84;;;7.72;100.00
51452;BME280;37521;52.020;-1.740;2023-03-21T08:47:53;99008.16;;;7.76;100.00
51452;BME280;37521;52.020;-1.740;2023-03-21T08:50:23;99005.34;;;7.79;100.00
51452;BME280;37521;52.020;-1.740;2023-03-21T08:52:53;99012.06;;;7.84;100.00
51452;BME280;37521;52.020;-1.740;2023-03-21T08:55:22;99020.25;;;7.96;100.00
51452;BME280;37521;52.020;-1.740;2023-03-21T08:57:50;99010.25;;;8.02;100.00
51452;BME280;37521;52.020;-1.740;2023-03-21T09:00:18;99009.09;;;8.08;100.00
51452;BME280;37521;52.020;-1.740;2023-03-21T09:02:48;99013.09;;;8.15;100.00
51452;BME280;37521;52.020;-1.740;2023-03-21T09:05:18;99011.00;;;8.22;100.00
51452;BME280;37521;52.020;-1.740;2023-03-21T09:07:46;99006.22;;;8.30;100.00
51452;BME280;37521;52.020;-1.740;2023-03-21T09:10:18;99000.63;;;8.36;100.00
51452;BME280;37521;52.020;-1.740;2023-03-21T09:12:49;99013.78;;;8.36;100.00
51452;BME280;37521;52.020;-1.740;2023-03-21T09:15:18;99015.72;;;8.32;100.00
51452;BME280;37521;52.020;-1.740;2023-03-21T09:17:47;99023.50;;;8.34;100.00
51452;BME280;37521;52.020;-1.740;2023-03-21T09:20:20;99017.50;;;8.32;100.00
51452;BME280;37521;52.020;-1.740;2023-03-21T09:22:57;99026.63;;;8.25;100.00
51452;BME280;37521;52.020;-1.740;2023-03-21T09:25:28;99021.69;;;8.18;100.00
51452;BME280;37521;52.020;-1.740;2023-03-21T09:27:58;99018.31;;;8.16;100.00
51452;BME280;37521;52.020;-1.740;2023-03-21T09:30:27;99015.06;;;8.11;100.00
51452;BME280;37521;52.020;-1.740;2023-03-21T09:32:58;99025.72;;;8.08;100.00
51452;BME280;37521;52.020;-1.740;2023-03-21T09:35:27;99025.72;;;8.08;100.00
51452;BME280;37521;52.020;-1.740;2023-03-21T09:37:55;99026.50;;;8.10;100.00
51452;BME280;37521;52.020;-1.740;2023-03-21T09:40:38;99018.00;;;8.23;100.00
51452;BME280;37521;52.020;-1.740;2023-03-21T09:43:20;99017.50;;;8.32;100.00
51452;BME280;37521;52.020;-1.740;2023-03-21T09:45:58;99018.25;;;8.34;100.00
51452;BME280;37521;52.020;-1.740;2023-03-21T09:48:33;99018.19;;;8.35;100.00
51452;BME280;37521;52.020;-1.740;2023-03-21T09:51:20;99018.13;;;8.37;100.00
51452;BME280;37521;52.020;-1.740;2023-03-21T09:53:49;99014.41;;;8.41;100.00
51452;BME280;37521;52.020;-1.740;2023-03-21T09:56:19;99008.25;;;8.58;100.00
51452;BME280;37521;52.020;-1.740;2023-03-21T09:58:51;99013.38;;;8.77;100.00
51452;BME280;37521;52.020;-1.740;2023-03-21T10:01:25;99009.53;;;8.98;100.00
51452;BME280;37521;52.020;-1.740;2023-03-21T10:03:57;99015.22;;;9.06;100.00
51452;BME280;37521;52.020;-1.740;2023-03-21T10:06:28;99014.03;;;8.96;100.00
51452;BME280;37521;52.020;-1.740;2023-03-21T10:08:59;99012.84;;;8.86;100.00
51452;BME280;37521;52.020;-1.740;2023-03-21T10:11:40;99005.28;;;8.80;100.00
51452;BME280;37521;52.020;-1.740;2023-03-21T10:14:16;99004.88;;;8.71;100.00
51452;BME280;37521;52.020;-1.740;2023-03-21T10:16:48;98997.63;;;8.59;100.00
51452;BME280;37521;52.020;-1.740;2023-03-21T10:19:17;98991.75;;;8.54;100.00
51452;BME280;37521;52.020;-1.740;2023-03-21T10:21:47;98986.69;;;8.67;100.00
51452;BME280;37521;52.020;-1.740;2023-03-21T10:24:33;98987.03;;;8.92;100.00
51452;BME280;37521;52.020;-1.740;2023-03-21T10:27:03;98979.09;;;9.08;100.00
51452;BME280;37521;52.020;-1.740;2023-03-21T10:29:37;98982.09;;;9.18;100.00
51452;BME280;37521;52.020;-1.740;2023-03-21T10:32:09;98981.69;;;9.40;100.00
51452;BME280;37521;52.020;-1.740;2023-03-21T10:34:41;98975.25;;;9.90;100.00
51452;BME280;37521;52.020;-1.740;2023-03-21T10:37:11;98982.22;;;10.19;100.00
51452;BME280;37521;52.020;-1.740;2023-03-21T10:39:42;98981.63;;;9.86;100.00
51452;BME280;37521;52.020;-1.740;2023-03-21T10:42:17;98980.97;;;9.52;100.00
51452;BME280;37521;52.020;-1.740;2023-03-21T10:44:49;98980.31;;;9.93;100.00
51452;BME280;37521;52.020;-1.740;2023-03-21T10:47:19;98968.69;;;10.25;100.00
51452;BME280;37521;52.020;-1.740;2023-03-21T10:49:48;98977.50;;;10.67;100.00
51452;BME280;37521;52.020;-1.740;2023-03-21T10:52:34;98967.69;;;10.83;100.00
51452;BME280;37521;52.020;-1.740;2023-03-21T10:55:07;98967.94;;;10.52;100.00
51452;BME280;37521;52.020;-1.740;2023-03-21T10:57:45;98972.09;;;10.27;100.00
51452;BME280;37521;52.020;-1.740;2023-03-21T11:00:19;98976.00;;;10.06;100.00
51452;BME280;37521;52.020;-1.740;2023-03-21T11:02:50;98966.66;;;10.15;100.00
51452;BME280;37521;52.020;-1.740;2023-03-21T11:05:23;98978.91;;;10.16;100.00
51452;BME280;37521;52.020;-1.740;2023-03-21T11:07:57;98983.28;;;10.17;100.00
51452;BME280;37521;52.020;-1.740;2023-03-21T11:10:28;98973.94;;;10.11;100.00
51452;BME280;37521;52.020;-1.740;2023-03-21T11:13:03;98989.56;;;10.14;100.00
51452;BME280;37521;52.020;-1.740;2023-03-21T11:15:41;98980.34;;;10.07;100.00
51452;BME280;37521;52.020;-1.740;2023-03-21T11:18:14;98984.00;;;10.04;100.00
51452;BME280;37521;52.020;-1.740;2023-03-21T11:20:51;98980.28;;;10.37;100.00
51452;BME280;37521;52.020;-1.740;2023-03-21T11:23:20;98985.06;;;10.73;100.00
51452;BME280;37521;52.020;-1.740;2023-03-21T11:25:49;98989.03;;;11.34;100.00
51452;BME280;37521;52.020;-1.740;2023-03-21T11:28:21;98982.00;;;12.13;100.00
51452;BME280;37521;52.020;-1.740;2023-03-21T11:30:53;98979.22;;;12.52;100.00
51452;BME280;37521;52.020;-1.740;2023-03-21T11:33:25;98976.19;;;12.70;100.00
51452;BME280;37521;52.020;-1.740;2023-03-21T11:36:01;98978.09;;;12.31;100.00
51452;BME280;37521;52.020;-1.740;2023-03-21T11:38:31;98986.84;;;11.93;100.00
51452;BME280;37521;52.020;-1.740;2023-03-21T11:41:03;98989.50;;;11.93;100.00
51452;BME280;37521;52.020;-1.740;2023-03-21T11:43:35;98976.06;;;11.84;100.00
51452;BME280;37521;52.020;-1.740;2023-03-21T11:46:06;98965.50;;;11.57;100.00
51452;BME280;37521;52.020;-1.740;2023-03-21T11:48:39;98965.50;;;11.44;100.00
51452;BME280;37521;52.020;-1.740;2023-03-21T11:51:16;98964.56;;;11.58;100.00
51452;BME280;37521;52.020;-1.740;2023-03-21T11:53:55;98965.56;;;11.42;100.00
51452;BME280;37521;52.020;-1.740;2023-03-21T11:56:28;98964.41;;;11.07;100.00
51452;BME280;37521;52.020;-1.740;2023-03-21T11:59:17;98976.16;;;10.88;100.00
51452;BME280;37521;52.020;-1.740;2023-03-21T12:01:57;98962.09;;;10.88;100.00
51452;BME280;37521;52.020;-1.740;2023-03-21T12:04:38;98970.78;;;10.90;100.00
51452;BME280;37521;52.020;-1.740;2023-03-21T12:07:15;98977.59;;;10.80;100.00
51452;BME280;37521;52.020;-1.740;2023-03-21T12:09:54;98965.91;;;10.84;100.00
51452;BME280;37521;52.020;-1.740;2023-03-21T12:12:33;98979.03;;;10.71;100.00
51452;BME280;37521;52.020;-1.740;2023-03-21T12:15:13;98962.97;;;10.74;100.00
51452;BME280;37521;52.020;-1.740;2023-03-21T12:17:52;98959.91;;;10.95;100.00
51452;BME280;37521;52.020;-1.740;2023-03-21T12:20:32;98964.09;;;10.84;100.00
51452;BME280;37521;52.020;-1.740;2023-03-21T12:23:26;98964.78;;;11.01;100.00
51452;BME280;37521;52.020;-1.740;2023-03-21T12:26:07;98952.91;;;11.48;100.00
51452;BME280;37521;52.020;-1.740;2023-03-21T12:28:46;98965.03;;;11.77;100.00
51452;BME280;37521;52.020;-1.740;2023-03-21T12:31:24;98953.16;;;11.57;100.00
51452;BME280;37521;52.020;-1.740;2023-03-21T12:34:04;98949.38;;;11.87;100.00
51452;BME280;37521;52.020;-1.740;2023-03-21T12:36:47;98940.78;;;11.70;100.00
51452;BME280;37521;52.020;-1.740;2023-03-21T12:39:26;98944.03;;;11.61;100.00
51452;BME280;37521;52.020;-1.740;2023-03-21T12:42:07;98941.34;;;11.88;100.00
51452;BME280;37521;52.020;-1.740;2023-03-21T12:44:38;98946.75;;;11.99;100.00
51452;BME280;37521;52.020;-1.740;2023-03-21T12:47:13;98945.69;;;12.02;100.00
51452;BME280;37521;52.020;-1.740;2023-03-21T12:49:47;98950.94;;;11.64;100.00
51452;BME280;37521;52.020;-1.740;2023-03-21T12:52:23;98961.69;;;11.21;100.00
51452;BME280;37521;52.020;-1.740;2023-03-21T12:54:55;98942.03;;;11.12;100.00
51452;BME280;37521;52.020;-1.740;2023-03-21T12:57:29;98952.72;;;10.97;100.00
51452;BME280;37521;52.020;-1.740;2023-03-21T13:00:02;98946.56;;;10.83;100.00
51452;BME280;37521;52.020;-1.740;2023-03-21T13:02:42;98958.75;;;10.72;100.00
51452;BME280;37521;52.020;-1.740;2023-03-21T13:05:17;98954.31;;;10.72;100.00
51452;BME280;37521;52.020;-1.740;2023-03-21T13:07:49;98952.81;;;10.68;100.00
51452;BME280;37521;52.020;-1.740;2023-03-21T13:10:20;98962.72;;;10.64;100.00
51452;BME280;37521;52.020;-1.740;2023-03-21T13:13:00;98957.53;;;10.63;100.00
51452;BME280;37521;52.020;-1.740;2023-03-21T13:15:44;98966.63;;;10.30;100.00
51452;BME280;37521;52.020;-1.740;2023-03-21T13:18:24;98952.84;;;10.11;100.00
51452;BME280;37521;52.020;-1.740;2023-03-21T13:20:56;98965.94;;;10.13;100.00
51452;BME280;37521;52.020;-1.740;2023-03-21T13:23:33;98964.13;;;10.70;100.00